sensor_id;sensor_type;location;lat;lon;timestamp;P1;durP1;ratioP1;P2;durP2;ratioP2
1531;SDS011;759;53.170;8.210;2022-08-11T00:02:14;4.93;;;3.67;;
1531;SDS011;759;53.170;8.210;2022-08-11T00:04:41;4.33;;;4.03;;
1531;SDS011;759;53.170;8.210;2022-08-11T00:07:07;8.77;;;4.13;;
1531;SDS011;759;53.170;8.210;2022-08-11T00:09:35;3.70;;;3.40;;
1531;SDS011;759;53.170;8.210;2022-08-11T00:12:02;4.77;;;4.23;;
1531;SDS011;759;53.170;8.210;2022-08-11T00:14:35;4.63;;;4.13;;
1531;SDS011;759;53.170;8.210;2022-08-11T00:17:05;5.13;;;3.93;;
1531;SDS011;759;53.170;8.210;2022-08-11T00:19:34;3.70;;;3.27;;
1531;SDS011;759;53.170;8.210;2022-08-11T00:22:02;5.03;;;4.47;;
1531;SDS011;759;53.170;8.210;2022-08-11T00:24:33;4.63;;;4.00;;
1531;SDS011;759;53.170;8.210;2022-08-11T00:27:04;6.27;;;4.20;;
1531;SDS011;759;53.170;8.210;2022-08-11T00:29:31;6.70;;;4.80;;
1531;SDS011;759;53.170;8.210;2022-08-11T00:31:57;5.70;;;4.03;;
1531;SDS011;759;53.170;8.210;2022-08-11T00:34:30;4.57;;;4.17;;
1531;SDS011;759;53.170;8.210;2022-08-11T00:37:01;7.00;;;4.47;;
1531;SDS011;759;53.170;8.210;2022-08-11T00:39:31;8.10;;;5.33;;
1531;SDS011;759;53.170;8.210;2022-08-11T00:50:59;4.60;;;3.93;;
1531;SDS011;759;53.170;8.210;2022-08-11T00:59:06;4.80;;;4.40;;
1531;SDS011;759;53.170;8.210;2022-08-11T01:01:47;4.63;;;4.23;;
1531;SDS011;759;53.170;8.210;2022-08-11T01:10:01;6.23;;;4.73;;
1531;SDS011;759;53.170;8.210;2022-08-11T01:13:01;5.60;;;4.40;;
1531;SDS011;759;53.170;8.210;2022-08-11T01:16:03;4.50;;;3.70;;
1531;SDS011;759;53.170;8.210;2022-08-11T01:21:32;5.03;;;4.27;;
1531;SDS011;759;53.170;8.210;2022-08-11T01:50:02;4.97;;;4.47;;
1531;SDS011;759;53.170;8.210;2022-08-11T02:16:08;4.90;;;4.40;;
1531;SDS011;759;53.170;8.210;2022-08-11T02:18:38;5.85;;;5.15;;
1531;SDS011;759;53.170;8.210;2022-08-11T02:21:26;5.83;;;4.30;;
1531;SDS011;759;53.170;8.210;2022-08-11T02:24:30;5.60;;;4.17;;
1531;SDS011;759;53.170;8.210;2022-08-11T02:27:29;4.80;;;4.40;;
1531;SDS011;759;53.170;8.210;2022-08-11T02:32:57;6.30;;;4.65;;
1531;SDS011;759;53.170;8.210;2022-08-11T02:35:45;5.30;;;4.90;;
1531;SDS011;759;53.170;8.210;2022-08-11T02:41:43;5.80;;;3.87;;
1531;SDS011;759;53.170;8.210;2022-08-11T02:47:08;5.67;;;5.00;;
1531;SDS011;759;53.170;8.210;2022-08-11T02:52:23;5.03;;;4.53;;
1531;SDS011;759;53.170;8.210;2022-08-11T02:55:25;4.45;;;4.15;;
1531;SDS011;759;53.170;8.210;2022-08-11T02:58:00;5.00;;;4.60;;
1531;SDS011;759;53.170;8.210;2022-08-11T03:00:42;5.30;;;4.67;;
1531;SDS011;759;53.170;8.210;2022-08-11T03:03:32;5.40;;;4.77;;
1531;SDS011;759;53.170;8.210;2022-08-11T03:06:28;7.20;;;5.10;;
1531;SDS011;759;53.170;8.210;2022-08-11T03:09:03;5.30;;;4.80;;
1531;SDS011;759;53.170;8.210;2022-08-11T03:11:51;5.10;;;4.70;;
1531;SDS011;759;53.170;8.210;2022-08-11T03:15:01;7.10;;;5.60;;
1531;SDS011;759;53.170;8.210;2022-08-11T03:18:03;6.90;;;5.80;;
1531;SDS011;759;53.170;8.210;2022-08-11T03:23:45;6.30;;;5.63;;
1531;SDS011;759;53.170;8.210;2022-08-11T03:29:28;6.07;;;5.47;;
1531;SDS011;759;53.170;8.210;2022-08-11T03:32:04;7.17;;;5.27;;
1531;SDS011;759;53.170;8.210;2022-08-11T03:34:35;5.47;;;5.00;;
1531;SDS011;759;53.170;8.210;2022-08-11T03:37:18;5.60;;;5.10;;
1531;SDS011;759;53.170;8.210;2022-08-11T03:43:21;6.37;;;5.77;;
1531;SDS011;759;53.170;8.210;2022-08-11T03:46:01;9.60;;;5.90;;
1531;SDS011;759;53.170;8.210;2022-08-11T03:51:49;7.45;;;5.30;;
1531;SDS011;759;53.170;8.210;2022-08-11T04:07:52;7.53;;;6.43;;
1531;SDS011;759;53.170;8.210;2022-08-11T04:16:09;5.70;;;5.10;;
1531;SDS011;759;53.170;8.210;2022-08-11T04:19:11;8.80;;;5.60;;
1531;SDS011;759;53.170;8.210;2022-08-11T04:24:50;5.63;;;5.03;;
1531;SDS011;759;53.170;8.210;2022-08-11T05:00:53;5.37;;;4.83;;
1531;SDS011;759;53.170;8.210;2022-08-11T05:03:52;6.90;;;5.77;;
1531;SDS011;759;53.170;8.210;2022-08-11T05:12:45;6.00;;;5.40;;
1531;SDS011;759;53.170;8.210;2022-08-11T05:15:12;6.43;;;5.70;;
1531;SDS011;759;53.170;8.210;2022-08-11T05:20:53;11.23;;;5.00;;
1531;SDS011;759;53.170;8.210;2022-08-11T05:23:40;7.97;;;5.67;;
1531;SDS011;759;53.170;8.210;2022-08-11T05:26:28;4.87;;;4.47;;
1531;SDS011;759;53.170;8.210;2022-08-11T05:29:35;7.55;;;5.50;;
1531;SDS011;759;53.170;8.210;2022-08-11T05:32:23;7.17;;;5.33;;
1531;SDS011;759;53.170;8.210;2022-08-11T05:35:10;6.70;;;5.07;;
1531;SDS011;759;53.170;8.210;2022-08-11T05:37:40;6.00;;;5.40;;
1531;SDS011;759;53.170;8.210;2022-08-11T05:40:13;6.00;;;5.25;;
1531;SDS011;759;53.170;8.210;2022-08-11T05:42:58;7.53;;;5.33;;
1531;SDS011;759;53.170;8.210;2022-08-11T05:45:44;7.30;;;4.33;;
1531;SDS011;759;53.170;8.210;2022-08-11T05:48:39;20.93;;;5.07;;
1531;SDS011;759;53.170;8.210;2022-08-11T05:51:31;5.33;;;4.53;;
1531;SDS011;759;53.170;8.210;2022-08-11T05:54:19;5.53;;;4.37;;
1531;SDS011;759;53.170;8.210;2022-08-11T05:57:03;6.83;;;4.40;;
1531;SDS011;759;53.170;8.210;2022-08-11T05:59:30;5.80;;;5.30;;
1531;SDS011;759;53.170;8.210;2022-08-11T06:02:03;6.00;;;5.15;;
1531;SDS011;759;53.170;8.210;2022-08-11T06:04:31;5.53;;;5.00;;
1531;SDS011;759;53.170;8.210;2022-08-11T06:06:59;6.30;;;3.77;;
1531;SDS011;759;53.170;8.210;2022-08-11T06:12:24;4.93;;;4.37;;
1531;SDS011;759;53.170;8.210;2022-08-11T06:14:53;4.47;;;4.07;;
1531;SDS011;759;53.170;8.210;2022-08-11T06:17:24;8.80;;;4.80;;
1531;SDS011;759;53.170;8.210;2022-08-11T06:19:57;11.03;;;4.80;;
1531;SDS011;759;53.170;8.210;2022-08-11T06:22:24;4.60;;;4.15;;
1531;SDS011;759;53.170;8.210;2022-08-11T06:25:00;5.53;;;4.13;;
1531;SDS011;759;53.170;8.210;2022-08-11T06:27:31;8.40;;;3.60;;
1531;SDS011;759;53.170;8.210;2022-08-11T06:29:59;7.60;;;4.40;;
1531;SDS011;759;53.170;8.210;2022-08-11T06:32:27;6.53;;;4.23;;
1531;SDS011;759;53.170;8.210;2022-08-11T06:40:37;4.07;;;3.70;;
1531;SDS011;759;53.170;8.210;2022-08-11T06:43:30;4.23;;;3.47;;
1531;SDS011;759;53.170;8.210;2022-08-11T06:46:09;3.93;;;3.63;;
1531;SDS011;759;53.170;8.210;2022-08-11T06:48:38;4.60;;;3.63;;
1531;SDS011;759;53.170;8.210;2022-08-11T06:51:06;5.53;;;4.40;;
1531;SDS011;759;53.170;8.210;2022-08-11T06:53:43;3.73;;;3.43;;
1531;SDS011;759;53.170;8.210;2022-08-11T06:56:09;3.50;;;3.20;;
1531;SDS011;759;53.170;8.210;2022-08-11T06:58:55;4.20;;;3.90;;
1531;SDS011;759;53.170;8.210;2022-08-11T07:04:29;3.77;;;3.27;;
1531;SDS011;759;53.170;8.210;2022-08-11T07:13:09;7.40;;;3.50;;
1531;SDS011;759;53.170;8.210;2022-08-11T07:15:57;4.17;;;3.77;;
1531;SDS011;759;53.170;8.210;2022-08-11T07:18:27;3.50;;;3.17;;
1531;SDS011;759;53.170;8.210;2022-08-11T07:21:15;3.30;;;3.00;;
1531;SDS011;759;53.170;8.210;2022-08-11T07:24:08;4.37;;;3.37;;
1531;SDS011;759;53.170;8.210;2022-08-11T07:26:56;3.25;;;3.05;;
1531;SDS011;759;53.170;8.210;2022-08-11T07:29:43;3.00;;;2.80;;
1531;SDS011;759;53.170;8.210;2022-08-11T07:32:23;7.40;;;2.77;;
1531;SDS011;759;53.170;8.210;2022-08-11T07:34:58;5.13;;;3.03;;
1531;SDS011;759;53.170;8.210;2022-08-11T07:37:32;3.70;;;3.40;;
1531;SDS011;759;53.170;8.210;2022-08-11T07:39:59;4.67;;;3.57;;
1531;SDS011;759;53.170;8.210;2022-08-11T07:42:29;3.47;;;2.60;;
1531;SDS011;759;53.170;8.210;2022-08-11T07:45:00;4.00;;;2.70;;
1531;SDS011;759;53.170;8.210;2022-08-11T07:47:47;3.73;;;2.87;;
1531;SDS011;759;53.170;8.210;2022-08-11T07:50:32;3.53;;;3.03;;
1531;SDS011;759;53.170;8.210;2022-08-11T07:53:18;3.00;;;2.80;;
1531;SDS011;759;53.170;8.210;2022-08-11T07:55:47;3.70;;;3.40;;
1531;SDS011;759;53.170;8.210;2022-08-11T07:58:14;5.15;;;3.20;;
1531;SDS011;759;53.170;8.210;2022-08-11T08:00:59;3.47;;;3.17;;
1531;SDS011;759;53.170;8.210;2022-08-11T08:03:43;4.17;;;2.90;;
1531;SDS011;759;53.170;8.210;2022-08-11T08:06:28;4.93;;;3.40;;
1531;SDS011;759;53.170;8.210;2022-08-11T08:09:16;3.47;;;3.23;;
1531;SDS011;759;53.170;8.210;2022-08-11T08:12:02;6.10;;;3.10;;
1531;SDS011;759;53.170;8.210;2022-08-11T08:14:47;3.63;;;3.33;;
1531;SDS011;759;53.170;8.210;2022-08-11T08:17:32;3.73;;;3.43;;
1531;SDS011;759;53.170;8.210;2022-08-11T08:20:19;3.20;;;2.90;;
1531;SDS011;759;53.170;8.210;2022-08-11T08:22:51;3.73;;;3.43;;
1531;SDS011;759;53.170;8.210;2022-08-11T08:25:22;4.20;;;3.10;;
1531;SDS011;759;53.170;8.210;2022-08-11T08:27:49;3.67;;;3.13;;
1531;SDS011;759;53.170;8.210;2022-08-11T08:30:18;2.87;;;2.67;;
1531;SDS011;759;53.170;8.210;2022-08-11T08:33:34;4.40;;;3.10;;
1531;SDS011;759;53.170;8.210;2022-08-11T08:36:07;3.53;;;3.23;;
1531;SDS011;759;53.170;8.210;2022-08-11T08:41:41;3.20;;;3.00;;
1531;SDS011;759;53.170;8.210;2022-08-11T08:44:09;3.20;;;3.00;;
1531;SDS011;759;53.170;8.210;2022-08-11T08:46:39;4.23;;;3.23;;
1531;SDS011;759;53.170;8.210;2022-08-11T08:49:09;5.30;;;3.97;;
1531;SDS011;759;53.170;8.210;2022-08-11T08:51:40;3.53;;;3.23;;
1531;SDS011;759;53.170;8.210;2022-08-11T08:54:09;3.90;;;3.07;;
1531;SDS011;759;53.170;8.210;2022-08-11T08:56:41;7.80;;;3.13;;
1531;SDS011;759;53.170;8.210;2022-08-11T08:59:16;3.07;;;2.40;;
1531;SDS011;759;53.170;8.210;2022-08-11T09:01:59;2.40;;;2.30;;
1531;SDS011;759;53.170;8.210;2022-08-11T09:04:26;2.73;;;2.50;;
1531;SDS011;759;53.170;8.210;2022-08-11T09:06:54;2.83;;;2.57;;
1531;SDS011;759;53.170;8.210;2022-08-11T09:09:22;4.17;;;2.63;;
1531;SDS011;759;53.170;8.210;2022-08-11T09:11:49;2.53;;;2.30;;
1531;SDS011;759;53.170;8.210;2022-08-11T09:14:27;2.63;;;2.40;;
1531;SDS011;759;53.170;8.210;2022-08-11T09:17:17;2.50;;;2.30;;
1531;SDS011;759;53.170;8.210;2022-08-11T09:19:44;5.63;;;2.57;;
1531;SDS011;759;53.170;8.210;2022-08-11T09:22:11;5.37;;;2.97;;
1531;SDS011;759;53.170;8.210;2022-08-11T09:24:55;2.53;;;2.10;;
1531;SDS011;759;53.170;8.210;2022-08-11T09:27:40;8.07;;;2.87;;
1531;SDS011;759;53.170;8.210;2022-08-11T09:30:06;2.57;;;2.10;;
1531;SDS011;759;53.170;8.210;2022-08-11T09:32:32;3.70;;;2.90;;
1531;SDS011;759;53.170;8.210;2022-08-11T09:35:01;1.70;;;1.60;;
1531;SDS011;759;53.170;8.210;2022-08-11T09:37:28;2.43;;;2.23;;
1531;SDS011;759;53.170;8.210;2022-08-11T09:40:14;2.30;;;2.20;;
1531;SDS011;759;53.170;8.210;2022-08-11T09:42:58;2.50;;;2.30;;
1531;SDS011;759;53.170;8.210;2022-08-11T09:45:48;2.23;;;2.03;;
1531;SDS011;759;53.170;8.210;2022-08-11T09:48:19;4.60;;;2.97;;
1531;SDS011;759;53.170;8.210;2022-08-11T09:50:51;4.53;;;2.07;;
1531;SDS011;759;53.170;8.210;2022-08-11T09:53:19;2.33;;;2.10;;
1531;SDS011;759;53.170;8.210;2022-08-11T09:55:45;3.90;;;2.20;;
1531;SDS011;759;53.170;8.210;2022-08-11T10:05:12;1.90;;;1.80;;
1531;SDS011;759;53.170;8.210;2022-08-11T10:08:16;3.47;;;2.10;;
1531;SDS011;759;53.170;8.210;2022-08-11T10:10:50;2.53;;;2.33;;
1531;SDS011;759;53.170;8.210;2022-08-11T10:13:22;7.50;;;3.17;;
1531;SDS011;759;53.170;8.210;2022-08-11T10:16:04;3.20;;;2.90;;
1531;SDS011;759;53.170;8.210;2022-08-11T10:19:07;6.30;;;3.77;;
1531;SDS011;759;53.170;8.210;2022-08-11T10:21:39;3.30;;;3.10;;
1531;SDS011;759;53.170;8.210;2022-08-11T10:24:08;5.93;;;2.90;;
1531;SDS011;759;53.170;8.210;2022-08-11T10:29:56;6.50;;;3.13;;
1531;SDS011;759;53.170;8.210;2022-08-11T10:32:42;3.10;;;2.90;;
1531;SDS011;759;53.170;8.210;2022-08-11T10:35:27;2.70;;;2.50;;
1531;SDS011;759;53.170;8.210;2022-08-11T10:37:55;2.87;;;2.67;;
1531;SDS011;759;53.170;8.210;2022-08-11T10:40:21;2.57;;;2.40;;
1531;SDS011;759;53.170;8.210;2022-08-11T10:42:51;2.67;;;2.47;;
1531;SDS011;759;53.170;8.210;2022-08-11T10:45:38;3.37;;;3.03;;
1531;SDS011;759;53.170;8.210;2022-08-11T10:48:27;5.10;;;2.57;;
1531;SDS011;759;53.170;8.210;2022-08-11T10:50:54;4.60;;;2.43;;
1531;SDS011;759;53.170;8.210;2022-08-11T10:53:46;2.50;;;2.40;;
1531;SDS011;759;53.170;8.210;2022-08-11T10:56:34;3.07;;;2.70;;
1531;SDS011;759;53.170;8.210;2022-08-11T10:59:19;2.83;;;2.63;;
1531;SDS011;759;53.170;8.210;2022-08-11T11:01:47;4.87;;;3.00;;
1531;SDS011;759;53.170;8.210;2022-08-11T11:04:14;3.13;;;2.93;;
1531;SDS011;759;53.170;8.210;2022-08-11T11:09:16;2.40;;;2.20;;
1531;SDS011;759;53.170;8.210;2022-08-11T11:11:47;3.00;;;2.77;;
1531;SDS011;759;53.170;8.210;2022-08-11T11:14:33;3.60;;;3.30;;
1531;SDS011;759;53.170;8.210;2022-08-11T11:17:22;2.90;;;2.70;;
1531;SDS011;759;53.170;8.210;2022-08-11T11:20:17;2.70;;;2.50;;
1531;SDS011;759;53.170;8.210;2022-08-11T11:22:47;2.97;;;2.73;;
1531;SDS011;759;53.170;8.210;2022-08-11T11:25:21;2.90;;;2.70;;
1531;SDS011;759;53.170;8.210;2022-08-11T11:30:35;2.40;;;2.20;;
1531;SDS011;759;53.170;8.210;2022-08-11T11:33:09;3.27;;;2.97;;
1531;SDS011;759;53.170;8.210;2022-08-11T11:38:19;3.40;;;2.70;;
1531;SDS011;759;53.170;8.210;2022-08-11T11:40:45;2.97;;;2.77;;
1531;SDS011;759;53.170;8.210;2022-08-11T11:43:31;2.70;;;2.50;;
1531;SDS011;759;53.170;8.210;2022-08-11T11:45:59;2.50;;;2.30;;
1531;SDS011;759;53.170;8.210;2022-08-11T11:48:25;2.77;;;2.57;;
1531;SDS011;759;53.170;8.210;2022-08-11T11:50:52;2.83;;;2.63;;
1531;SDS011;759;53.170;8.210;2022-08-11T11:53:19;3.03;;;2.80;;
1531;SDS011;759;53.170;8.210;2022-08-11T11:55:46;2.40;;;2.30;;
1531;SDS011;759;53.170;8.210;2022-08-11T11:58:12;3.00;;;2.80;;
1531;SDS011;759;53.170;8.210;2022-08-11T12:00:56;3.37;;;3.07;;
1531;SDS011;759;53.170;8.210;2022-08-11T12:03:40;2.37;;;2.27;;
1531;SDS011;759;53.170;8.210;2022-08-11T12:06:10;2.67;;;2.47;;
1531;SDS011;759;53.170;8.210;2022-08-11T12:08:38;7.40;;;2.67;;
1531;SDS011;759;53.170;8.210;2022-08-11T12:11:06;3.53;;;2.37;;
1531;SDS011;759;53.170;8.210;2022-08-11T12:13:52;2.60;;;2.50;;
1531;SDS011;759;53.170;8.210;2022-08-11T12:16:21;2.70;;;2.50;;
1531;SDS011;759;53.170;8.210;2022-08-11T12:18:56;2.55;;;2.10;;
1531;SDS011;759;53.170;8.210;2022-08-11T12:21:24;2.83;;;2.70;;
1531;SDS011;759;53.170;8.210;2022-08-11T12:23:51;2.33;;;2.23;;
1531;SDS011;759;53.170;8.210;2022-08-11T12:26:38;2.70;;;2.50;;
1531;SDS011;759;53.170;8.210;2022-08-11T12:29:14;2.40;;;2.20;;
1531;SDS011;759;53.170;8.210;2022-08-11T12:31:41;2.87;;;2.10;;
1531;SDS011;759;53.170;8.210;2022-08-11T12:34:12;2.50;;;2.40;;
1531;SDS011;759;53.170;8.210;2022-08-11T12:36:41;2.80;;;2.60;;
1531;SDS011;759;53.170;8.210;2022-08-11T12:39:11;2.90;;;2.70;;
1531;SDS011;759;53.170;8.210;2022-08-11T12:41:42;2.80;;;2.60;;
1531;SDS011;759;53.170;8.210;2022-08-11T12:44:26;3.90;;;2.57;;
1531;SDS011;759;53.170;8.210;2022-08-11T12:47:15;2.80;;;2.60;;
1531;SDS011;759;53.170;8.210;2022-08-11T12:49:44;3.17;;;2.83;;
1531;SDS011;759;53.170;8.210;2022-08-11T12:52:40;2.70;;;2.50;;
1531;SDS011;759;53.170;8.210;2022-08-11T12:55:10;2.60;;;2.40;;
1531;SDS011;759;53.170;8.210;2022-08-11T12:57:58;2.67;;;2.47;;
1531;SDS011;759;53.170;8.210;2022-08-11T13:00:41;2.63;;;2.43;;
1531;SDS011;759;53.170;8.210;2022-08-11T13:03:26;2.50;;;2.30;;
1531;SDS011;759;53.170;8.210;2022-08-11T13:06:11;3.00;;;2.80;;
1531;SDS011;759;53.170;8.210;2022-08-11T13:08:37;2.53;;;2.33;;
1531;SDS011;759;53.170;8.210;2022-08-11T13:11:04;3.03;;;2.80;;
1531;SDS011;759;53.170;8.210;2022-08-11T13:13:50;3.00;;;2.80;;
1531;SDS011;759;53.170;8.210;2022-08-11T13:16:30;3.40;;;3.20;;
1531;SDS011;759;53.170;8.210;2022-08-11T13:19:17;4.80;;;2.83;;
1531;SDS011;759;53.170;8.210;2022-08-11T13:21:45;4.03;;;2.97;;
1531;SDS011;759;53.170;8.210;2022-08-11T13:24:11;2.50;;;2.30;;
1531;SDS011;759;53.170;8.210;2022-08-11T13:26:37;2.57;;;2.37;;
1531;SDS011;759;53.170;8.210;2022-08-11T13:29:03;2.65;;;2.45;;
1531;SDS011;759;53.170;8.210;2022-08-11T13:31:29;2.60;;;2.50;;
1531;SDS011;759;53.170;8.210;2022-08-11T13:33:56;2.80;;;2.50;;
1531;SDS011;759;53.170;8.210;2022-08-11T13:36:23;2.97;;;2.67;;
1531;SDS011;759;53.170;8.210;2022-08-11T13:38:52;3.00;;;2.80;;
1531;SDS011;759;53.170;8.210;2022-08-11T13:41:19;4.33;;;2.70;;
1531;SDS011;759;53.170;8.210;2022-08-11T13:44:08;2.57;;;2.40;;
1531;SDS011;759;53.170;8.210;2022-08-11T13:46:36;4.70;;;2.70;;
1531;SDS011;759;53.170;8.210;2022-08-11T13:49:03;2.30;;;2.10;;
1531;SDS011;759;53.170;8.210;2022-08-11T13:51:33;3.10;;;2.90;;
1531;SDS011;759;53.170;8.210;2022-08-11T13:54:06;2.67;;;2.47;;
1531;SDS011;759;53.170;8.210;2022-08-11T13:56:35;2.63;;;2.43;;
1531;SDS011;759;53.170;8.210;2022-08-11T13:59:08;2.90;;;2.57;;
1531;SDS011;759;53.170;8.210;2022-08-11T14:01:40;2.83;;;2.63;;
1531;SDS011;759;53.170;8.210;2022-08-11T14:04:11;3.57;;;3.20;;
1531;SDS011;759;53.170;8.210;2022-08-11T14:06:43;2.70;;;2.50;;
1531;SDS011;759;53.170;8.210;2022-08-11T14:09:10;5.17;;;3.33;;
1531;SDS011;759;53.170;8.210;2022-08-11T14:11:38;3.20;;;2.70;;
1531;SDS011;759;53.170;8.210;2022-08-11T14:14:26;2.40;;;2.30;;
1531;SDS011;759;53.170;8.210;2022-08-11T14:16:58;2.70;;;2.50;;
1531;SDS011;759;53.170;8.210;2022-08-11T14:19:29;3.00;;;2.70;;
1531;SDS011;759;53.170;8.210;2022-08-11T14:22:00;2.83;;;2.53;;
1531;SDS011;759;53.170;8.210;2022-08-11T14:24:37;2.60;;;2.40;;
1531;SDS011;759;53.170;8.210;2022-08-11T14:27:05;2.53;;;2.33;;
1531;SDS011;759;53.170;8.210;2022-08-11T14:29:32;2.60;;;2.40;;
1531;SDS011;759;53.170;8.210;2022-08-11T14:32:03;2.80;;;2.60;;
1531;SDS011;759;53.170;8.210;2022-08-11T14:34:30;2.50;;;2.30;;
1531;SDS011;759;53.170;8.210;2022-08-11T14:37:03;2.93;;;2.73;;
1531;SDS011;759;53.170;8.210;2022-08-11T14:39:37;2.40;;;2.30;;
1531;SDS011;759;53.170;8.210;2022-08-11T14:42:13;3.10;;;2.90;;
1531;SDS011;759;53.170;8.210;2022-08-11T14:45:04;2.80;;;2.60;;
1531;SDS011;759;53.170;8.210;2022-08-11T14:47:53;3.40;;;3.20;;
1531;SDS011;759;53.170;8.210;2022-08-11T14:50:25;3.17;;;2.87;;
1531;SDS011;759;53.170;8.210;2022-08-11T14:52:57;2.80;;;2.60;;
1531;SDS011;759;53.170;8.210;2022-08-11T14:55:26;2.80;;;2.60;;
1531;SDS011;759;53.170;8.210;2022-08-11T14:58:19;3.40;;;3.10;;
1531;SDS011;759;53.170;8.210;2022-08-11T15:00:49;2.60;;;2.40;;
1531;SDS011;759;53.170;8.210;2022-08-11T15:03:20;3.97;;;3.10;;
1531;SDS011;759;53.170;8.210;2022-08-11T15:05:51;2.80;;;2.60;;
1531;SDS011;759;53.170;8.210;2022-08-11T15:08:33;3.07;;;2.50;;
1531;SDS011;759;53.170;8.210;2022-08-11T15:11:25;2.90;;;2.70;;
1531;SDS011;759;53.170;8.210;2022-08-11T15:14:13;2.90;;;2.70;;
1531;SDS011;759;53.170;8.210;2022-08-11T15:16:59;2.50;;;2.33;;
1531;SDS011;759;53.170;8.210;2022-08-11T15:19:35;2.90;;;2.67;;
1531;SDS011;759;53.170;8.210;2022-08-11T15:22:23;2.57;;;2.47;;
1531;SDS011;759;53.170;8.210;2022-08-11T15:25:07;2.50;;;2.30;;
1531;SDS011;759;53.170;8.210;2022-08-11T15:27:33;3.33;;;2.60;;
1531;SDS011;759;53.170;8.210;2022-08-11T15:30:18;2.90;;;2.70;;
1531;SDS011;759;53.170;8.210;2022-08-11T15:33:05;2.60;;;2.30;;
1531;SDS011;759;53.170;8.210;2022-08-11T15:35:51;2.57;;;2.37;;
1531;SDS011;759;53.170;8.210;2022-08-11T15:38:52;3.07;;;2.60;;
1531;SDS011;759;53.170;8.210;2022-08-11T15:41:21;5.40;;;3.20;;
1531;SDS011;759;53.170;8.210;2022-08-11T15:44:14;2.90;;;2.70;;
1531;SDS011;759;53.170;8.210;2022-08-11T15:46:58;2.57;;;2.43;;
1531;SDS011;759;53.170;8.210;2022-08-11T15:49:33;3.30;;;3.00;;
1531;SDS011;759;53.170;8.210;2022-08-11T15:52:07;3.10;;;2.80;;
1531;SDS011;759;53.170;8.210;2022-08-11T15:54:39;2.87;;;2.67;;
1531;SDS011;759;53.170;8.210;2022-08-11T15:57:07;3.55;;;2.70;;
1531;SDS011;759;53.170;8.210;2022-08-11T15:59:35;3.20;;;2.70;;
1531;SDS011;759;53.170;8.210;2022-08-11T16:02:21;4.25;;;2.85;;
1531;SDS011;759;53.170;8.210;2022-08-11T16:05:10;2.87;;;2.67;;
1531;SDS011;759;53.170;8.210;2022-08-11T16:07:37;3.10;;;2.90;;
1531;SDS011;759;53.170;8.210;2022-08-11T16:10:09;4.07;;;3.20;;
1531;SDS011;759;53.170;8.210;2022-08-11T16:12:41;3.93;;;2.90;;
1531;SDS011;759;53.170;8.210;2022-08-11T16:15:30;4.70;;;3.20;;
1531;SDS011;759;53.170;8.210;2022-08-11T16:18:15;3.50;;;3.20;;
1531;SDS011;759;53.170;8.210;2022-08-11T16:20:44;2.30;;;2.20;;
1531;SDS011;759;53.170;8.210;2022-08-11T16:23:11;4.27;;;3.97;;
1531;SDS011;759;53.170;8.210;2022-08-11T16:25:39;4.10;;;3.80;;
1531;SDS011;759;53.170;8.210;2022-08-11T16:28:06;3.25;;;3.05;;
1531;SDS011;759;53.170;8.210;2022-08-11T16:30:36;3.60;;;3.30;;
1531;SDS011;759;53.170;8.210;2022-08-11T16:33:04;3.87;;;3.50;;
1531;SDS011;759;53.170;8.210;2022-08-11T16:35:34;3.60;;;3.03;;
1531;SDS011;759;53.170;8.210;2022-08-11T16:38:25;4.60;;;2.90;;
1531;SDS011;759;53.170;8.210;2022-08-11T16:41:11;5.80;;;2.80;;
1531;SDS011;759;53.170;8.210;2022-08-11T16:43:41;2.90;;;2.70;;
1531;SDS011;759;53.170;8.210;2022-08-11T16:46:28;3.30;;;3.10;;
1531;SDS011;759;53.170;8.210;2022-08-11T16:49:32;3.10;;;2.90;;
1531;SDS011;759;53.170;8.210;2022-08-11T16:52:01;2.90;;;2.67;;
1531;SDS011;759;53.170;8.210;2022-08-11T16:54:33;3.00;;;2.80;;
1531;SDS011;759;53.170;8.210;2022-08-11T16:56:59;2.87;;;2.67;;
1531;SDS011;759;53.170;8.210;2022-08-11T16:59:48;3.07;;;2.87;;
1531;SDS011;759;53.170;8.210;2022-08-11T17:02:17;3.10;;;2.75;;
1531;SDS011;759;53.170;8.210;2022-08-11T17:05:10;2.80;;;2.60;;
1531;SDS011;759;53.170;8.210;2022-08-11T17:07:57;3.03;;;2.83;;
1531;SDS011;759;53.170;8.210;2022-08-11T17:10:48;2.90;;;2.70;;
1531;SDS011;759;53.170;8.210;2022-08-11T17:13:37;2.63;;;2.43;;
1531;SDS011;759;53.170;8.210;2022-08-11T17:16:07;3.03;;;2.83;;
1531;SDS011;759;53.170;8.210;2022-08-11T17:21:33;3.10;;;2.90;;
1531;SDS011;759;53.170;8.210;2022-08-11T17:24:22;3.23;;;3.00;;
1531;SDS011;759;53.170;8.210;2022-08-11T17:26:51;3.47;;;2.67;;
1531;SDS011;759;53.170;8.210;2022-08-11T17:29:23;2.47;;;2.37;;
1531;SDS011;759;53.170;8.210;2022-08-11T17:31:52;4.15;;;2.60;;
1531;SDS011;759;53.170;8.210;2022-08-11T17:34:37;4.60;;;2.87;;
1531;SDS011;759;53.170;8.210;2022-08-11T17:37:22;3.27;;;2.90;;
1531;SDS011;759;53.170;8.210;2022-08-11T17:39:49;4.80;;;2.33;;
1531;SDS011;759;53.170;8.210;2022-08-11T17:42:15;2.97;;;2.77;;
1531;SDS011;759;53.170;8.210;2022-08-11T17:45:00;3.65;;;2.95;;
1531;SDS011;759;53.170;8.210;2022-08-11T17:47:46;3.35;;;2.40;;
1531;SDS011;759;53.170;8.210;2022-08-11T17:50:31;2.70;;;2.50;;
1531;SDS011;759;53.170;8.210;2022-08-11T17:52:58;3.90;;;3.33;;
1531;SDS011;759;53.170;8.210;2022-08-11T17:55:43;2.85;;;2.70;;
1531;SDS011;759;53.170;8.210;2022-08-11T17:58:29;4.37;;;3.07;;
1531;SDS011;759;53.170;8.210;2022-08-11T18:01:14;4.30;;;2.80;;
1531;SDS011;759;53.170;8.210;2022-08-11T18:03:43;2.60;;;2.43;;
1531;SDS011;759;53.170;8.210;2022-08-11T18:06:09;2.77;;;2.57;;
1531;SDS011;759;53.170;8.210;2022-08-11T18:08:38;3.40;;;3.10;;
1531;SDS011;759;53.170;8.210;2022-08-11T18:11:26;2.63;;;2.37;;
1531;SDS011;759;53.170;8.210;2022-08-11T18:14:14;5.20;;;2.70;;
1531;SDS011;759;53.170;8.210;2022-08-11T18:16:58;3.20;;;2.70;;
1531;SDS011;759;53.170;8.210;2022-08-11T18:19:42;3.35;;;3.15;;
1531;SDS011;759;53.170;8.210;2022-08-11T18:22:30;3.10;;;2.80;;
1531;SDS011;759;53.170;8.210;2022-08-11T18:25:19;6.40;;;2.80;;
1531;SDS011;759;53.170;8.210;2022-08-11T18:28:06;3.50;;;3.20;;
1531;SDS011;759;53.170;8.210;2022-08-11T18:30:51;3.10;;;2.90;;
1531;SDS011;759;53.170;8.210;2022-08-11T18:33:37;3.10;;;2.87;;
1531;SDS011;759;53.170;8.210;2022-08-11T18:36:27;3.60;;;2.63;;
1531;SDS011;759;53.170;8.210;2022-08-11T18:39:17;3.00;;;2.80;;
1531;SDS011;759;53.170;8.210;2022-08-11T18:42:05;3.30;;;3.00;;
1531;SDS011;759;53.170;8.210;2022-08-11T18:44:52;3.20;;;2.90;;
1531;SDS011;759;53.170;8.210;2022-08-11T18:47:38;3.00;;;2.70;;
1531;SDS011;759;53.170;8.210;2022-08-11T18:50:23;3.13;;;2.77;;
1531;SDS011;759;53.170;8.210;2022-08-11T18:53:08;3.40;;;3.10;;
1531;SDS011;759;53.170;8.210;2022-08-11T18:55:55;3.20;;;2.90;;
1531;SDS011;759;53.170;8.210;2022-08-11T18:58:42;2.93;;;2.73;;
1531;SDS011;759;53.170;8.210;2022-08-11T19:01:27;2.70;;;2.50;;
1531;SDS011;759;53.170;8.210;2022-08-11T19:04:13;2.50;;;2.30;;
1531;SDS011;759;53.170;8.210;2022-08-11T19:06:59;3.33;;;3.03;;
1531;SDS011;759;53.170;8.210;2022-08-11T19:09:45;2.63;;;2.43;;
1531;SDS011;759;53.170;8.210;2022-08-11T19:12:33;3.27;;;3.00;;
1531;SDS011;759;53.170;8.210;2022-08-11T19:15:19;3.27;;;2.97;;
1531;SDS011;759;53.170;8.210;2022-08-11T19:18:04;3.60;;;2.80;;
1531;SDS011;759;53.170;8.210;2022-08-11T19:20:53;3.73;;;3.03;;
1531;SDS011;759;53.170;8.210;2022-08-11T19:23:40;3.40;;;3.10;;
1531;SDS011;759;53.170;8.210;2022-08-11T19:26:27;3.20;;;2.70;;
1531;SDS011;759;53.170;8.210;2022-08-11T19:29:12;2.60;;;2.30;;
1531;SDS011;759;53.170;8.210;2022-08-11T19:31:58;3.73;;;3.20;;
1531;SDS011;759;53.170;8.210;2022-08-11T19:34:44;4.45;;;3.20;;
1531;SDS011;759;53.170;8.210;2022-08-11T19:37:29;2.60;;;2.40;;
1531;SDS011;759;53.170;8.210;2022-08-11T19:40:14;2.97;;;2.77;;
1531;SDS011;759;53.170;8.210;2022-08-11T19:42:59;5.83;;;3.10;;
1531;SDS011;759;53.170;8.210;2022-08-11T19:45:45;3.00;;;2.80;;
1531;SDS011;759;53.170;8.210;2022-08-11T19:48:29;2.20;;;2.10;;
1531;SDS011;759;53.170;8.210;2022-08-11T19:51:14;3.00;;;2.70;;
1531;SDS011;759;53.170;8.210;2022-08-11T19:54:01;6.00;;;3.10;;
1531;SDS011;759;53.170;8.210;2022-08-11T19:56:46;3.57;;;3.17;;
1531;SDS011;759;53.170;8.210;2022-08-11T19:59:32;2.97;;;2.77;;
1531;SDS011;759;53.170;8.210;2022-08-11T20:02:17;3.40;;;2.80;;